North Newton, Pennsylvania
Current Conditions -  °F | °C
As of 6:56 AM on Thursday 23 Oct 2014 (Local Time) from KCXY Reporting Station
Overcast Overcast  
Wind Chill: 54°   Ceiling: 3200
Heat Index: 54°   Visibility: 10mi
Dew Point: 41°   Wind: 12mph
Humidity: 62%   Direction: 300°WNW
Pressure: 29.88"   Gusts: NA
Location:  40.183°N, 77.4166°W
Report Text: KCXY 231056Z 30010KT 10SM OVC032 12/05 A2988 RMK AO2 SLP120 T01220050
Loading
Personal Weather Stations






























Interactive Weather Map
Tropical Storm Tracking
New forecast layout! Learn more

10-Day Weather Forecast

Advertisements
Track Severe Weather on mobile